Time,TemperatureF,DewpointF,PressureIn,WindDirection,WindDirectionDegrees,WindSpeedMPH,WindSpeedGustMPH,Humidity,HourlyPrecipIn,Conditions,Clouds,dailyrainin,SoftwareType,DateUTC
2013-03-27 00:00:00,39.1,34.1,29.86,WNW,292,0.0,3.0,82,0.00,,,0.00,LWC V2.11 B50,2013-03-27 04:00:00,
2013-03-27 00:01:00,39.1,34.1,29.86,WNW,290,3.0,3.0,82,0.00,,,0.00,LWC V2.11 B50,2013-03-27 04:01:00,
2013-03-27 00:06:00,39.2,34.2,29.86,WNW,290,1.0,4.0,82,0.00,,,0.00,LWC V2.11 B50,2013-03-27 04:06:00,
2013-03-27 00:11:00,39.2,33.9,29.86,WNW,299,0.0,0.0,81,0.00,,,0.00,LWC V2.11 B50,2013-03-27 04:11:00,
2013-03-27 00:16:00,39.1,33.8,29.85,WNW,288,3.0,3.0,81,0.00,,,0.00,LWC V2.11 B50,2013-03-27 04:16:00,
2013-03-27 00:21:00,39.1,33.8,29.85,WNW,294,0.0,0.0,81,0.00,,,0.00,LWC V2.11 B50,2013-03-27 04:21:00,
2013-03-27 00:26:00,39.0,33.7,29.85,WNW,297,0.0,0.0,81,0.00,,,0.00,LWC V2.11 B50,2013-03-27 04:26:00,
2013-03-27 00:31:00,38.9,33.9,29.85,WNW,291,3.0,6.0,82,0.00,,,0.00,LWC V2.11 B50,2013-03-27 04:31:00,
2013-03-27 00:36:00,38.9,33.6,29.85,WNW,292,0.0,0.0,81,0.00,,,0.00,LWC V2.11 B50,2013-03-27 04:36:00,
2013-03-27 00:41:00,38.8,33.5,29.86,WNW,292,0.0,0.0,81,0.00,,,0.00,LWC V2.11 B50,2013-03-27 04:41:00,
2013-03-27 00:46:00,38.7,33.4,29.85,WNW,288,1.0,4.0,81,0.00,,,0.00,LWC V2.11 B50,2013-03-27 04:46:00,
2013-03-27 00:51:00,38.6,33.6,29.85,WNW,290,2.0,4.0,82,0.00,,,0.00,LWC V2.11 B50,2013-03-27 04:51:00,
2013-03-27 00:56:00,38.4,33.4,29.85,WNW,290,2.0,3.0,82,0.00,,,0.00,LWC V2.11 B50,2013-03-27 04:56:00,
2013-03-27 01:01:00,38.4,33.4,29.85,WNW,292,0.0,3.0,82,0.00,,,0.00,LWC V2.11 B50,2013-03-27 05:01:00,
2013-03-27 01:06:00,38.3,33.3,29.85,WNW,291,2.0,4.0,82,0.00,,,0.00,LWC V2.11 B50,2013-03-27 05:06:00,
2013-03-27 01:11:00,38.3,33.3,29.86,WNW,291,2.0,3.0,82,0.00,,,0.00,LWC V2.11 B50,2013-03-27 05:11:00,
2013-03-27 01:16:00,38.3,33.3,29.86,NW,306,0.0,4.0,82,0.00,,,0.00,LWC V2.11 B50,2013-03-27 05:16:00,
2013-03-27 01:21:00,38.2,33.2,29.86,WNW,295,0.0,0.0,82,0.00,,,0.00,LWC V2.11 B50,2013-03-27 05:21:00,
2013-03-27 01:26:00,38.0,33.3,29.86,WNW,296,0.0,0.0,83,0.00,,,0.00,LWC V2.11 B50,2013-03-27 05:26:00,
2013-03-27 01:31:00,37.8,33.1,29.86,WNW,295,0.0,3.0,83,0.00,,,0.00,LWC V2.11 B50,2013-03-27 05:31:00,
2013-03-27 01:36:00,37.7,33.3,29.86,WNW,295,0.0,0.0,84,0.00,,,0.00,LWC V2.11 B50,2013-03-27 05:36:00,
2013-03-27 01:41:00,37.4,32.7,29.86,WNW,295,0.0,0.0,83,0.00,,,0.00,LWC V2.11 B50,2013-03-27 05:41:00,
2013-03-27 01:46:00,37.2,32.8,29.86,WNW,298,0.0,3.0,84,0.00,,,0.00,LWC V2.11 B50,2013-03-27 05:46:00,
2013-03-27 01:51:00,37.0,32.6,29.86,WNW,298,0.0,0.0,84,0.00,,,0.00,LWC V2.11 B50,2013-03-27 05:51:00,
2013-03-27 01:56:00,37.0,32.9,29.86,WNW,292,0.0,0.0,85,0.00,,,0.00,LWC V2.11 B50,2013-03-27 05:56:00,
2013-03-27 02:01:00,36.9,32.8,29.86,WNW,298,0.0,3.0,85,0.00,,,0.00,LWC V2.11 B50,2013-03-27 06:01:00,
2013-03-27 02:06:00,36.8,32.7,29.86,WNW,291,0.0,1.0,85,0.00,,,0.00,LWC V2.11 B50,2013-03-27 06:06:00,
2013-03-27 02:11:00,36.8,32.7,29.87,WNW,292,0.0,0.0,85,0.00,,,0.00,LWC V2.11 B50,2013-03-27 06:11:00,
2013-03-27 02:16:00,36.6,32.5,29.87,WNW,292,0.0,3.0,85,0.00,,,0.00,LWC V2.11 B50,2013-03-27 06:16:00,
2013-03-27 02:21:00,36.5,32.4,29.87,WNW,291,0.0,3.0,85,0.00,,,0.00,LWC V2.11 B50,2013-03-27 06:21:00,
2013-03-27 02:26:00,36.5,32.1,29.87,WNW,298,1.0,5.0,84,0.00,,,0.00,LWC V2.11 B50,2013-03-27 06:26:00,
2013-03-27 02:31:00,36.6,32.2,29.87,NW,310,1.0,5.0,84,0.00,,,0.00,LWC V2.11 B50,2013-03-27 06:31:00,
2013-03-27 02:36:00,36.6,31.9,29.86,WNW,298,0.0,0.0,83,0.00,,,0.00,LWC V2.11 B50,2013-03-27 06:36:00,
2013-03-27 02:41:00,36.6,31.9,29.86,WNW,298,0.0,0.0,83,0.00,,,0.00,LWC V2.11 B50,2013-03-27 06:41:00,
2013-03-27 02:46:00,36.6,31.6,29.86,WNW,296,0.0,1.0,82,0.00,,,0.00,LWC V2.11 B50,2013-03-27 06:46:00,
2013-03-27 02:51:00,36.5,31.5,29.86,WNW,297,0.0,0.0,82,0.00,,,0.00,LWC V2.11 B50,2013-03-27 06:51:00,
2013-03-27 02:56:00,36.5,31.2,29.86,WNW,296,0.0,0.0,81,0.00,,,0.00,LWC V2.11 B50,2013-03-27 06:56:00,
2013-03-27 03:01:00,36.4,31.1,29.86,WNW,297,0.0,0.0,81,0.00,,,0.00,LWC V2.11 B50,2013-03-27 07:01:00,
2013-03-27 03:06:00,36.2,30.9,29.86,WNW,296,0.0,0.0,81,0.00,,,0.00,LWC V2.11 B50,2013-03-27 07:06:00,
2013-03-27 03:11:00,36.1,30.8,29.86,WNW,297,0.0,0.0,81,0.00,,,0.00,LWC V2.11 B50,2013-03-27 07:11:00,
2013-03-27 03:16:00,36.0,30.7,29.86,WNW,297,0.0,0.0,81,0.00,,,0.00,LWC V2.11 B50,2013-03-27 07:16:00,
2013-03-27 03:21:00,35.7,30.5,29.86,WNW,296,0.0,0.0,81,0.00,,,0.00,LWC V2.11 B50,2013-03-27 07:21:00,
2013-03-27 03:26:00,35.4,30.2,29.85,WNW,297,0.0,0.0,81,0.00,,,0.00,LWC V2.11 B50,2013-03-27 07:26:00,
2013-03-27 03:31:00,35.1,29.9,29.86,WNW,296,0.0,0.0,81,0.00,,,0.00,LWC V2.11 B50,2013-03-27 07:31:00,
2013-03-27 03:36:00,35.0,29.8,29.85,WNW,297,0.0,0.0,81,0.00,,,0.00,LWC V2.11 B50,2013-03-27 07:36:00,
2013-03-27 03:41:00,34.7,29.5,29.85,WNW,296,0.0,0.0,81,0.00,,,0.00,LWC V2.11 B50,2013-03-27 07:41:00,
2013-03-27 03:46:00,34.6,29.7,29.85,WNW,297,0.0,0.0,82,0.00,,,0.00,LWC V2.11 B50,2013-03-27 07:46:00,
2013-03-27 03:51:00,34.5,29.6,29.86,WNW,297,0.0,0.0,82,0.00,,,0.00,LWC V2.11 B50,2013-03-27 07:51:00,
2013-03-27 03:56:00,34.6,29.7,29.86,WNW,296,0.0,0.0,82,0.00,,,0.00,LWC V2.11 B50,2013-03-27 07:56:00,
2013-03-27 04:01:00,34.6,29.4,29.86,WNW,296,0.0,0.0,81,0.00,,,0.00,LWC V2.11 B50,2013-03-27 08:01:00,
2013-03-27 04:06:00,34.6,29.4,29.86,WNW,297,0.0,0.0,81,0.00,,,0.00,LWC V2.11 B50,2013-03-27 08:06:00,
2013-03-27 04:11:00,34.7,29.8,29.85,WNW,297,0.0,0.0,82,0.00,,,0.00,LWC V2.11 B50,2013-03-27 08:11:00,
2013-03-27 04:16:00,34.9,30.0,29.85,WNW,297,0.0,0.0,82,0.00,,,0.00,LWC V2.11 B50,2013-03-27 08:16:00,
2013-03-27 04:21:00,35.2,30.0,29.85,WNW,296,1.0,2.0,81,0.00,,,0.00,LWC V2.11 B50,2013-03-27 08:21:00,
2013-03-27 04:26:00,35.3,30.1,29.85,WNW,297,0.0,0.0,81,0.00,,,0.00,LWC V2.11 B50,2013-03-27 08:26:00,
2013-03-27 04:31:00,35.5,30.3,29.86,WNW,296,0.0,0.0,81,0.00,,,0.00,LWC V2.11 B50,2013-03-27 08:31:00,
2013-03-27 04:36:00,35.6,30.4,29.85,WNW,297,0.0,0.0,81,0.00,,,0.00,LWC V2.11 B50,2013-03-27 08:36:00,
2013-03-27 04:41:00,35.4,30.2,29.86,WNW,297,0.0,0.0,81,0.00,,,0.00,LWC V2.11 B50,2013-03-27 08:41:00,
2013-03-27 04:46:00,35.3,30.1,29.86,WNW,297,0.0,0.0,81,0.00,,,0.00,LWC V2.11 B50,2013-03-27 08:46:00,
2013-03-27 04:51:00,35.1,29.9,29.86,WNW,297,0.0,0.0,81,0.00,,,0.00,LWC V2.11 B50,2013-03-27 08:51:00,
2013-03-27 04:56:00,34.8,29.6,29.86,WNW,297,0.0,0.0,81,0.00,,,0.00,LWC V2.11 B50,2013-03-27 08:56:00,
2013-03-27 05:01:00,34.6,29.7,29.86,WNW,297,0.0,0.0,82,0.00,,,0.00,LWC V2.11 B50,2013-03-27 09:01:00,
2013-03-27 05:06:00,34.4,29.5,29.87,WNW,296,0.0,0.0,82,0.00,,,0.00,LWC V2.11 B50,2013-03-27 09:06:00,
2013-03-27 05:11:00,34.2,29.3,29.87,WNW,296,0.0,0.0,82,0.00,,,0.00,LWC V2.11 B50,2013-03-27 09:11:00,
2013-03-27 05:16:00,33.9,29.0,29.87,WNW,297,0.0,0.0,82,0.00,,,0.00,LWC V2.11 B50,2013-03-27 09:16:00,
2013-03-27 05:21:00,33.7,29.1,29.87,WNW,297,0.0,0.0,83,0.00,,,0.00,LWC V2.11 B50,2013-03-27 09:21:00,
2013-03-27 05:26:00,33.7,29.4,29.87,WNW,297,0.0,0.0,84,0.00,,,0.00,LWC V2.11 B50,2013-03-27 09:26:00,
2013-03-27 05:31:00,33.6,29.6,29.88,WNW,297,0.0,0.0,85,0.00,,,0.00,LWC V2.11 B50,2013-03-27 09:31:00,
2013-03-27 05:36:00,33.4,29.4,29.88,WNW,297,0.0,0.0,85,0.00,,,0.00,LWC V2.11 B50,2013-03-27 09:36:00,
2013-03-27 05:41:00,33.3,29.3,29.88,WNW,297,0.0,0.0,85,0.00,,,0.00,LWC V2.11 B50,2013-03-27 09:41:00,
2013-03-27 05:46:00,33.3,29.6,29.88,WNW,296,0.0,0.0,86,0.00,,,0.00,LWC V2.11 B50,2013-03-27 09:46:00,
2013-03-27 05:51:00,33.2,29.5,29.88,WNW,297,0.0,0.0,86,0.00,,,0.00,LWC V2.11 B50,2013-03-27 09:51:00,
2013-03-27 05:56:00,33.3,29.9,29.88,WNW,297,0.0,0.0,87,0.00,,,0.00,LWC V2.11 B50,2013-03-27 09:56:00,
2013-03-27 06:01:00,33.4,30.0,29.88,WNW,297,0.0,0.0,87,0.00,,,0.00,LWC V2.11 B50,2013-03-27 10:01:00,
2013-03-27 06:06:00,33.5,30.1,29.88,WNW,296,0.0,2.0,87,0.00,,,0.00,LWC V2.11 B50,2013-03-27 10:06:00,
2013-03-27 06:11:00,33.7,30.2,29.88,WNW,297,0.0,0.0,87,0.00,,,0.00,LWC V2.11 B50,2013-03-27 10:11:00,
2013-03-27 06:16:00,33.9,30.4,29.88,WNW,289,4.0,4.0,87,0.00,,,0.00,LWC V2.11 B50,2013-03-27 10:16:00,
2013-03-27 06:21:00,34.2,30.7,29.88,WNW,287,1.0,5.0,87,0.00,,,0.00,LWC V2.11 B50,2013-03-27 10:21:00,
2013-03-27 06:26:00,34.4,30.7,29.88,West,279,1.0,3.0,86,0.00,,,0.00,LWC V2.11 B50,2013-03-27 10:26:00,
2013-03-27 06:31:00,34.6,30.9,29.88,WNW,286,2.0,3.0,86,0.00,,,0.00,LWC V2.11 B50,2013-03-27 10:31:00,
2013-03-27 06:36:00,34.6,30.9,29.88,WNW,288,2.0,3.0,86,0.00,,,0.00,LWC V2.11 B50,2013-03-27 10:36:00,
2013-03-27 06:41:00,34.7,30.9,29.89,WNW,288,2.0,2.0,86,0.00,,,0.00,LWC V2.11 B50,2013-03-27 10:41:00,
2013-03-27 06:46:00,34.7,30.7,29.89,WNW,288,0.0,0.0,85,0.00,,,0.00,LWC V2.11 B50,2013-03-27 10:46:00,
2013-03-27 06:51:00,34.7,30.9,29.89,WNW,288,0.0,0.0,86,0.00,,,0.00,LWC V2.11 B50,2013-03-27 10:51:00,
2013-03-27 06:56:00,34.6,30.9,29.89,WNW,288,0.0,0.0,86,0.00,,,0.00,LWC V2.11 B50,2013-03-27 10:56:00,
2013-03-27 07:01:00,34.7,30.9,29.89,WNW,289,0.0,0.0,86,0.00,,,0.00,LWC V2.11 B50,2013-03-27 11:01:00,
2013-03-27 07:07:00,34.7,30.9,29.89,NW,307,2.0,6.0,86,0.00,,,0.00,LWC V2.11 B50,2013-03-27 11:07:00,
2013-03-27 07:12:00,34.8,31.0,29.89,WNW,298,1.0,4.0,86,0.00,,,0.00,LWC V2.11 B50,2013-03-27 11:12:00,
2013-03-27 07:17:00,35.0,31.0,29.90,WNW,294,4.0,4.0,85,0.00,,,0.00,LWC V2.11 B50,2013-03-27 11:17:00,
2013-03-27 07:22:00,35.0,31.0,29.90,WNW,303,2.0,5.0,85,0.00,,,0.00,LWC V2.11 B50,2013-03-27 11:22:00,
2013-03-27 07:27:00,35.1,31.1,29.90,NW,304,1.0,3.0,85,0.00,,,0.00,LWC V2.11 B50,2013-03-27 11:27:00,
2013-03-27 07:32:00,35.1,31.1,29.90,WNW,284,0.0,3.0,85,0.00,,,0.00,LWC V2.11 B50,2013-03-27 11:32:00,
2013-03-27 07:37:00,35.1,31.1,29.90,West,274,2.0,3.0,85,0.00,,,0.00,LWC V2.11 B50,2013-03-27 11:37:00,
2013-03-27 07:42:00,35.2,31.2,29.90,WNW,294,2.0,2.0,85,0.00,,,0.00,LWC V2.11 B50,2013-03-27 11:42:00,
2013-03-27 07:47:00,35.5,31.4,29.90,WNW,296,4.0,7.0,85,0.00,,,0.00,LWC V2.11 B50,2013-03-27 11:47:00,
2013-03-27 07:52:00,35.9,31.5,29.90,West,279,4.0,4.0,84,0.00,,,0.00,LWC V2.11 B50,2013-03-27 11:52:00,
2013-03-27 07:57:00,36.2,31.8,29.91,NW,304,5.0,9.0,84,0.00,,,0.00,LWC V2.11 B50,2013-03-27 11:57:00,
2013-03-27 08:02:00,36.5,31.8,29.91,WNW,283,1.0,5.0,83,0.00,,,0.00,LWC V2.11 B50,2013-03-27 12:02:00,
2013-03-27 08:07:00,37.0,32.0,29.91,West,280,2.0,9.0,82,0.00,,,0.00,LWC V2.11 B50,2013-03-27 12:07:00,
2013-03-27 08:12:00,37.4,32.4,29.91,WNW,303,5.0,9.0,82,0.00,,,0.00,LWC V2.11 B50,2013-03-27 12:12:00,
2013-03-27 08:17:00,37.9,32.6,29.91,WNW,295,4.0,9.0,81,0.00,,,0.00,LWC V2.11 B50,2013-03-27 12:17:00,
2013-03-27 08:22:00,38.3,32.7,29.91,West,275,3.0,7.0,80,0.00,,,0.00,LWC V2.11 B50,2013-03-27 12:22:00,
2013-03-27 08:27:00,38.7,32.8,29.91,WNW,285,2.0,6.0,79,0.00,,,0.00,LWC V2.11 B50,2013-03-27 12:27:00,
2013-03-27 08:32:00,39.1,32.8,29.92,NW,310,6.0,10.0,78,0.00,,,0.00,LWC V2.11 B50,2013-03-27 12:32:00,
2013-03-27 08:37:00,39.3,33.0,29.92,WNW,283,0.0,9.0,78,0.00,,,0.00,LWC V2.11 B50,2013-03-27 12:37:00,
2013-03-27 08:42:00,39.6,33.0,29.92,WNW,282,4.0,9.0,77,0.00,,,0.00,LWC V2.11 B50,2013-03-27 12:42:00,
2013-03-27 08:47:00,40.0,33.4,29.92,WNW,287,7.0,10.0,77,0.00,,,0.00,LWC V2.11 B50,2013-03-27 12:47:00,
2013-03-27 08:52:00,40.4,33.4,29.92,WNW,287,3.0,7.0,76,0.00,,,0.00,LWC V2.11 B50,2013-03-27 12:52:00,
2013-03-27 08:57:00,40.7,33.4,29.92,NW,309,5.0,7.0,75,0.00,,,0.00,LWC V2.11 B50,2013-03-27 12:57:00,
2013-03-27 09:02:00,40.9,33.3,29.92,WNW,292,2.0,7.0,74,0.00,,,0.00,LWC V2.11 B50,2013-03-27 13:02:00,
2013-03-27 09:07:00,41.2,33.2,29.91,WNW,294,7.0,16.0,73,0.00,,,0.00,LWC V2.11 B50,2013-03-27 13:07:00,
2013-03-27 09:12:00,41.5,33.8,29.92,WSW,239,6.0,7.0,74,0.00,,,0.00,LWC V2.11 B50,2013-03-27 13:12:00,
2013-03-27 09:17:00,41.7,33.3,29.92,WNW,296,10.0,14.0,72,0.00,,,0.00,LWC V2.11 B50,2013-03-27 13:17:00,
2013-03-27 09:22:00,41.9,33.5,29.92,West,277,6.0,17.0,72,0.00,,,0.00,LWC V2.11 B50,2013-03-27 13:22:00,
2013-03-27 09:27:00,42.4,34.0,29.92,WNW,283,4.0,11.0,72,0.00,,,0.00,LWC V2.11 B50,2013-03-27 13:27:00,
2013-03-27 09:32:00,42.6,33.2,29.92,NW,309,10.0,15.0,69,0.00,,,0.00,LWC V2.11 B50,2013-03-27 13:32:00,
2013-03-27 09:37:00,42.7,33.2,29.91,WNW,293,4.0,7.0,69,0.00,,,0.00,LWC V2.11 B50,2013-03-27 13:37:00,
2013-03-27 09:42:00,42.9,32.7,29.91,WSW,253,4.0,10.0,67,0.00,,,0.00,LWC V2.11 B50,2013-03-27 13:42:00,
2013-03-27 09:47:00,43.2,32.2,29.91,WNW,299,11.0,15.0,65,0.00,,,0.00,LWC V2.11 B50,2013-03-27 13:47:00,
2013-03-27 09:52:00,43.4,31.7,29.91,WNW,292,4.0,6.0,63,0.00,,,0.00,LWC V2.11 B50,2013-03-27 13:52:00,
2013-03-27 09:57:00,43.7,31.5,29.91,WNW,300,5.0,5.0,62,0.00,,,0.00,LWC V2.11 B50,2013-03-27 13:57:00,
2013-03-27 10:02:00,43.9,31.3,29.91,NW,304,3.0,13.0,61,0.00,,,0.00,LWC V2.11 B50,2013-03-27 14:02:00,
2013-03-27 10:07:00,44.0,31.4,29.91,West,269,10.0,14.0,61,0.00,,,0.00,LWC V2.11 B50,2013-03-27 14:07:00,
2013-03-27 10:12:00,44.3,31.3,29.91,WNW,294,0.0,13.0,60,0.00,,,0.00,LWC V2.11 B50,2013-03-27 14:12:00,
2013-03-27 10:17:00,44.4,31.0,29.91,WNW,292,9.0,13.0,59,0.00,,,0.00,LWC V2.11 B50,2013-03-27 14:17:00,
2013-03-27 10:22:00,44.8,31.8,29.91,WNW,291,2.0,7.0,60,0.00,,,0.00,LWC V2.11 B50,2013-03-27 14:22:00,
2013-03-27 10:27:00,45.1,31.2,29.91,WNW,299,9.0,11.0,58,0.00,,,0.00,LWC V2.11 B50,2013-03-27 14:27:00,
2013-03-27 10:32:00,45.2,30.9,29.91,WNW,300,4.0,13.0,57,0.00,,,0.00,LWC V2.11 B50,2013-03-27 14:32:00,
2013-03-27 10:37:00,45.4,31.1,29.91,WNW,287,12.0,15.0,57,0.00,,,0.00,LWC V2.11 B50,2013-03-27 14:37:00,
2013-03-27 10:42:00,45.4,30.6,29.91,WNW,286,5.0,10.0,56,0.00,,,0.00,LWC V2.11 B50,2013-03-27 14:42:00,
2013-03-27 10:47:00,46.0,30.7,29.91,WNW,296,10.0,10.0,55,0.00,,,0.00,LWC V2.11 B50,2013-03-27 14:47:00,
2013-03-27 10:52:00,45.8,29.7,29.91,WNW,296,1.0,14.0,53,0.00,,,0.00,LWC V2.11 B50,2013-03-27 14:52:00,
2013-03-27 10:57:00,45.9,29.7,29.91,WNW,296,10.0,15.0,53,0.00,,,0.00,LWC V2.11 B50,2013-03-27 14:57:00,
2013-03-27 11:02:00,45.8,29.7,29.91,WNW,283,10.0,16.0,53,0.00,,,0.00,LWC V2.11 B50,2013-03-27 15:02:00,
2013-03-27 11:07:00,46.0,31.2,29.91,West,269,10.0,15.0,56,0.00,,,0.00,LWC V2.11 B50,2013-03-27 15:07:00,
2013-03-27 11:12:00,46.3,31.0,29.91,WNW,294,12.0,16.0,55,0.00,,,0.00,LWC V2.11 B50,2013-03-27 15:12:00,
2013-03-27 11:17:00,46.4,31.1,29.91,WNW,299,2.0,14.0,55,0.00,,,0.00,LWC V2.11 B50,2013-03-27 15:17:00,
2013-03-27 11:22:00,46.7,31.4,29.91,WNW,300,1.0,17.0,55,0.00,,,0.00,LWC V2.11 B50,2013-03-27 15:22:00,
2013-03-27 11:27:00,47.0,31.2,29.91,WNW,298,12.0,12.0,54,0.00,,,0.00,LWC V2.11 B50,2013-03-27 15:27:00,
2013-03-27 11:32:00,46.5,30.3,29.91,West,281,13.0,14.0,53,0.00,,,0.00,LWC V2.11 B50,2013-03-27 15:32:00,
2013-03-27 11:37:00,46.8,30.6,29.91,WNW,292,11.0,13.0,53,0.00,,,0.00,LWC V2.11 B50,2013-03-27 15:37:00,
2013-03-27 11:42:00,47.1,29.9,29.91,NW,304,5.0,13.0,51,0.00,,,0.00,LWC V2.11 B50,2013-03-27 15:42:00,
2013-03-27 11:47:00,47.0,30.8,29.91,WNW,292,11.0,13.0,53,0.00,,,0.00,LWC V2.11 B50,2013-03-27 15:47:00,
2013-03-27 11:52:00,47.3,30.6,29.90,WNW,290,7.0,18.0,52,0.00,,,0.00,LWC V2.11 B50,2013-03-27 15:52:00,
2013-03-27 11:57:00,47.3,31.0,29.91,WNW,298,6.0,17.0,53,0.00,,,0.00,LWC V2.11 B50,2013-03-27 15:57:00,
2013-03-27 12:02:00,47.6,30.9,29.90,WNW,288,11.0,14.0,52,0.00,,,0.00,LWC V2.11 B50,2013-03-27 16:02:00,
2013-03-27 12:07:00,47.4,30.2,29.90,NW,306,6.0,10.0,51,0.00,,,0.00,LWC V2.11 B50,2013-03-27 16:07:00,
2013-03-27 12:12:00,47.9,31.1,29.90,WNW,299,1.0,6.0,52,0.00,,,0.00,LWC V2.11 B50,2013-03-27 16:12:00,
2013-03-27 12:17:00,48.0,30.3,29.90,WNW,291,11.0,15.0,50,0.00,,,0.00,LWC V2.11 B50,2013-03-27 16:17:00,
2013-03-27 12:22:00,47.9,30.7,29.90,WNW,284,4.0,15.0,51,0.00,,,0.00,LWC V2.11 B50,2013-03-27 16:22:00,
2013-03-27 12:27:00,48.0,29.8,29.90,West,268,7.0,16.0,49,0.00,,,0.00,LWC V2.11 B50,2013-03-27 16:27:00,
2013-03-27 12:32:00,48.3,31.0,29.90,NW,304,1.0,10.0,51,0.00,,,0.00,LWC V2.11 B50,2013-03-27 16:32:00,
2013-03-27 12:37:00,48.5,30.7,29.90,SSW,209,2.0,14.0,50,0.00,,,0.00,LWC V2.11 B50,2013-03-27 16:37:00,
2013-03-27 12:42:00,48.6,30.3,29.89,WNW,294,3.0,12.0,49,0.00,,,0.00,LWC V2.11 B50,2013-03-27 16:42:00,
2013-03-27 12:47:00,48.5,29.7,29.90,WNW,287,5.0,17.0,48,0.00,,,0.00,LWC V2.11 B50,2013-03-27 16:47:00,
2013-03-27 12:52:00,48.5,30.2,29.89,West,267,1.0,7.0,49,0.00,,,0.00,LWC V2.11 B50,2013-03-27 16:52:00,
2013-03-27 12:57:00,48.7,29.4,29.90,WNW,303,6.0,14.0,47,0.00,,,0.00,LWC V2.11 B50,2013-03-27 16:57:00,
2013-03-27 13:02:00,48.8,30.0,29.90,WNW,294,3.0,6.0,48,0.00,,,0.00,LWC V2.11 B50,2013-03-27 17:02:00,
2013-03-27 13:07:00,49.0,29.1,29.89,WNW,291,6.0,14.0,46,0.00,,,0.00,LWC V2.11 B50,2013-03-27 17:07:00,
2013-03-27 13:12:00,48.4,29.6,29.89,WNW,302,10.0,18.0,48,0.00,,,0.00,LWC V2.11 B50,2013-03-27 17:12:00,
2013-03-27 13:17:00,47.8,28.6,29.89,WNW,292,11.0,20.0,47,0.00,,,0.00,LWC V2.11 B50,2013-03-27 17:17:00,
2013-03-27 13:22:00,47.4,28.2,29.89,WNW,300,10.0,13.0,47,0.00,,,0.00,LWC V2.11 B50,2013-03-27 17:22:00,
2013-03-27 13:27:00,47.9,29.7,29.89,WNW,285,7.0,13.0,49,0.00,,,0.00,LWC V2.11 B50,2013-03-27 17:27:00,
2013-03-27 13:32:00,47.9,29.7,29.89,NW,304,14.0,16.0,49,0.00,,,0.00,LWC V2.11 B50,2013-03-27 17:32:00,
2013-03-27 13:37:00,47.5,27.8,29.89,WNW,297,4.0,9.0,46,0.00,,,0.00,LWC V2.11 B50,2013-03-27 17:37:00,
2013-03-27 13:42:00,47.5,29.3,29.89,WNW,294,8.0,12.0,49,0.00,,,0.00,LWC V2.11 B50,2013-03-27 17:42:00,
2013-03-27 13:47:00,48.1,28.8,29.89,WNW,303,10.0,16.0,47,0.00,,,0.00,LWC V2.11 B50,2013-03-27 17:47:00,
2013-03-27 13:52:00,47.7,27.9,29.88,NNW,336,3.0,10.0,46,0.00,,,0.00,LWC V2.11 B50,2013-03-27 17:52:00,
2013-03-27 13:57:00,48.1,28.8,29.88,WNW,286,1.0,11.0,47,0.00,,,0.00,LWC V2.11 B50,2013-03-27 17:57:00,
2013-03-27 14:02:00,48.5,28.7,29.88,WNW,282,2.0,14.0,46,0.00,,,0.00,LWC V2.11 B50,2013-03-27 18:02:00,
2013-03-27 14:07:00,48.1,28.8,29.88,WNW,284,1.0,11.0,47,0.00,,,0.00,LWC V2.11 B50,2013-03-27 18:07:00,
2013-03-27 14:12:00,47.9,28.7,29.88,NW,304,7.0,16.0,47,0.00,,,0.00,LWC V2.11 B50,2013-03-27 18:12:00,
2013-03-27 14:17:00,48.7,28.3,29.88,WNW,290,12.0,12.0,45,0.00,,,0.00,LWC V2.11 B50,2013-03-27 18:17:00,
2013-03-27 14:22:00,48.8,28.4,29.88,WNW,295,1.0,13.0,45,0.00,,,0.00,LWC V2.11 B50,2013-03-27 18:22:00,
2013-03-27 14:27:00,48.5,28.1,29.88,WNW,288,8.0,17.0,45,0.00,,,0.00,LWC V2.11 B50,2013-03-27 18:27:00,
2013-03-27 14:32:00,48.5,29.2,29.88,West,273,13.0,17.0,47,0.00,,,0.00,LWC V2.11 B50,2013-03-27 18:32:00,
2013-03-27 14:37:00,49.0,28.6,29.87,West,276,9.0,10.0,45,0.00,,,0.00,LWC V2.11 B50,2013-03-27 18:37:00,
2013-03-27 14:42:00,49.6,29.7,29.87,WNW,299,7.0,16.0,46,0.00,,,0.00,LWC V2.11 B50,2013-03-27 18:42:00,
2013-03-27 14:47:00,49.7,28.7,29.87,West,268,11.0,17.0,44,0.00,,,0.00,LWC V2.11 B50,2013-03-27 18:47:00,
2013-03-27 14:52:00,49.4,29.5,29.87,West,265,13.0,18.0,46,0.00,,,0.00,LWC V2.11 B50,2013-03-27 18:52:00,
2013-03-27 14:57:00,49.9,30.0,29.87,WNW,292,2.0,15.0,46,0.00,,,0.00,LWC V2.11 B50,2013-03-27 18:57:00,
2013-03-27 15:02:00,50.4,29.3,29.87,WNW,292,9.0,11.0,44,0.00,,,0.00,LWC V2.11 B50,2013-03-27 19:02:00,
2013-03-27 15:07:00,50.8,29.7,29.87,WNW,284,9.0,19.0,44,0.00,,,0.00,LWC V2.11 B50,2013-03-27 19:07:00,
2013-03-27 15:12:00,50.2,29.1,29.87,West,281,8.0,17.0,44,0.00,,,0.00,LWC V2.11 B50,2013-03-27 19:12:00,
2013-03-27 15:17:00,49.8,29.3,29.87,WNW,291,10.0,14.0,45,0.00,,,0.00,LWC V2.11 B50,2013-03-27 19:17:00,
2013-03-27 15:22:00,48.6,29.3,29.87,WNW,287,13.0,13.0,47,0.00,,,0.00,LWC V2.11 B50,2013-03-27 19:22:00,
2013-03-27 15:27:00,47.8,29.6,29.87,WNW,290,6.0,16.0,49,0.00,,,0.00,LWC V2.11 B50,2013-03-27 19:27:00,
2013-03-27 15:32:00,48.2,30.4,29.87,WNW,290,9.0,11.0,50,0.00,,,0.00,LWC V2.11 B50,2013-03-27 19:32:00,
2013-03-27 15:37:00,48.6,30.8,29.87,West,267,3.0,17.0,50,0.00,,,0.00,LWC V2.11 B50,2013-03-27 19:37:00,
2013-03-27 15:42:00,49.0,31.7,29.87,WNW,288,10.0,14.0,51,0.00,,,0.00,LWC V2.11 B50,2013-03-27 19:42:00,
2013-03-27 15:47:00,48.1,31.3,29.87,WNW,300,9.0,13.0,52,0.00,,,0.00,LWC V2.11 B50,2013-03-27 19:47:00,
2013-03-27 15:52:00,47.7,31.9,29.87,WNW,297,3.0,13.0,54,0.00,,,0.00,LWC V2.11 B50,2013-03-27 19:52:00,
2013-03-27 15:57:00,48.2,31.9,29.87,WNW,290,10.0,10.0,53,0.00,,,0.00,LWC V2.11 B50,2013-03-27 19:57:00,
2013-03-27 16:02:00,48.2,30.9,29.86,WNW,283,5.0,10.0,51,0.00,,,0.00,LWC V2.11 B50,2013-03-27 20:02:00,
2013-03-27 16:07:00,48.9,30.1,29.86,WNW,298,10.0,17.0,48,0.00,,,0.00,LWC V2.11 B50,2013-03-27 20:07:00,
2013-03-27 16:12:00,49.5,30.6,29.86,WNW,292,10.0,11.0,48,0.00,,,0.00,LWC V2.11 B50,2013-03-27 20:12:00,
2013-03-27 16:17:00,50.1,30.7,29.86,WNW,302,6.0,11.0,47,0.00,,,0.00,LWC V2.11 B50,2013-03-27 20:17:00,
2013-03-27 16:22:00,50.7,31.2,29.86,WNW,290,4.0,12.0,47,0.00,,,0.00,LWC V2.11 B50,2013-03-27 20:22:00,
2013-03-27 16:27:00,50.9,29.8,29.86,WNW,291,12.0,17.0,44,0.00,,,0.00,LWC V2.11 B50,2013-03-27 20:27:00,
2013-03-27 16:32:00,50.3,28.7,29.87,WNW,289,8.0,13.0,43,0.00,,,0.00,LWC V2.11 B50,2013-03-27 20:32:00,
2013-03-27 16:37:00,49.7,28.7,29.87,NW,307,2.0,6.0,44,0.00,,,0.00,LWC V2.11 B50,2013-03-27 20:37:00,
2013-03-27 16:42:00,49.7,28.7,29.87,NW,313,15.0,17.0,44,0.00,,,0.00,LWC V2.11 B50,2013-03-27 20:42:00,
2013-03-27 16:47:00,49.4,29.0,29.87,WNW,300,6.0,18.0,45,0.00,,,0.00,LWC V2.11 B50,2013-03-27 20:47:00,
2013-03-27 16:52:00,49.2,31.4,29.88,NW,306,7.0,17.0,50,0.00,,,0.00,LWC V2.11 B50,2013-03-27 20:52:00,
2013-03-27 16:57:00,49.5,32.6,29.88,WSW,249,14.0,14.0,52,0.00,,,0.00,LWC V2.11 B50,2013-03-27 20:57:00,
2013-03-27 17:02:00,49.6,31.2,29.88,WNW,293,9.0,12.0,49,0.00,,,0.00,LWC V2.11 B50,2013-03-27 21:02:00,
2013-03-27 17:07:00,49.4,31.0,29.88,West,273,7.0,10.0,49,0.00,,,0.00,LWC V2.11 B50,2013-03-27 21:07:00,
2013-03-27 17:12:00,49.2,30.9,29.88,WNW,292,11.0,13.0,49,0.00,,,0.00,LWC V2.11 B50,2013-03-27 21:12:00,
2013-03-27 17:17:00,48.9,31.1,29.88,WNW,292,3.0,6.0,50,0.00,,,0.00,LWC V2.11 B50,2013-03-27 21:17:00,
2013-03-27 17:22:00,48.9,31.1,29.88,WNW,292,4.0,14.0,50,0.00,,,0.00,LWC V2.11 B50,2013-03-27 21:22:00,
2013-03-27 17:27:00,48.9,31.1,29.88,WNW,286,9.0,12.0,50,0.00,,,0.00,LWC V2.11 B50,2013-03-27 21:27:00,
2013-03-27 17:32:00,49.2,31.4,29.88,WNW,301,4.0,9.0,50,0.00,,,0.00,LWC V2.11 B50,2013-03-27 21:32:00,
2013-03-27 17:37:00,49.0,30.7,29.89,WNW,289,4.0,10.0,49,0.00,,,0.00,LWC V2.11 B50,2013-03-27 21:37:00,
2013-03-27 17:42:00,48.4,30.6,29.89,West,280,19.0,24.0,50,0.00,,,0.00,LWC V2.11 B50,2013-03-27 21:42:00,
2013-03-27 17:47:00,46.7,32.7,29.90,West,265,15.0,27.0,58,0.00,,,0.00,LWC V2.11 B50,2013-03-27 21:47:00,
2013-03-27 17:52:00,45.5,33.6,29.90,WNW,302,10.0,14.0,63,0.00,,,0.00,LWC V2.11 B50,2013-03-27 21:52:00,
2013-03-27 17:57:00,44.7,33.7,29.91,West,279,13.0,21.0,65,0.00,,,0.00,LWC V2.11 B50,2013-03-27 21:57:00,
2013-03-27 18:02:00,44.2,33.9,29.91,WNW,291,6.0,13.0,67,0.00,,,0.00,LWC V2.11 B50,2013-03-27 22:02:00,
2013-03-27 18:07:00,44.3,33.7,29.91,WNW,288,5.0,11.0,66,0.00,,,0.00,LWC V2.11 B50,2013-03-27 22:07:00,
2013-03-27 18:12:00,44.5,33.1,29.90,NW,304,9.0,9.0,64,0.00,,,0.00,LWC V2.11 B50,2013-03-27 22:12:00,
2013-03-27 18:17:00,44.9,32.7,29.91,WNW,293,6.0,13.0,62,0.00,,,0.00,LWC V2.11 B50,2013-03-27 22:17:00,
2013-03-27 18:22:00,45.1,32.9,29.91,WNW,296,7.0,9.0,62,0.00,,,0.00,LWC V2.11 B50,2013-03-27 22:22:00,
2013-03-27 18:27:00,45.1,32.5,29.91,WNW,286,0.0,3.0,61,0.00,,,0.00,LWC V2.11 B50,2013-03-27 22:27:00,
2013-03-27 18:32:00,45.1,32.5,29.91,West,276,4.0,9.0,61,0.00,,,0.00,LWC V2.11 B50,2013-03-27 22:32:00,
2013-03-27 18:37:00,45.0,32.4,29.92,West,277,0.0,9.0,61,0.00,,,0.00,LWC V2.11 B50,2013-03-27 22:37:00,
2013-03-27 18:42:00,44.9,32.3,29.91,WNW,288,0.0,6.0,61,0.00,,,0.00,LWC V2.11 B50,2013-03-27 22:42:00,
2013-03-27 18:47:00,44.9,31.9,29.91,WNW,294,1.0,10.0,60,0.00,,,0.00,LWC V2.11 B50,2013-03-27 22:47:00,
2013-03-27 18:52:00,44.9,31.9,29.92,NW,310,4.0,7.0,60,0.00,,,0.00,LWC V2.11 B50,2013-03-27 22:52:00,
2013-03-27 18:57:00,45.0,31.5,29.92,West,277,12.0,12.0,59,0.00,,,0.00,LWC V2.11 B50,2013-03-27 22:57:00,
2013-03-27 19:02:00,45.1,31.6,29.92,NW,323,2.0,11.0,59,0.00,,,0.00,LWC V2.11 B50,2013-03-27 23:02:00,
2013-03-27 19:07:00,45.1,31.6,29.92,WNW,295,3.0,4.0,59,0.00,,,0.00,LWC V2.11 B50,2013-03-27 23:07:00,
2013-03-27 19:12:00,45.1,31.6,29.92,WNW,297,0.0,2.0,59,0.00,,,0.00,LWC V2.11 B50,2013-03-27 23:12:00,
2013-03-27 19:17:00,45.0,31.5,29.92,WNW,284,0.0,2.0,59,0.00,,,0.00,LWC V2.11 B50,2013-03-27 23:17:00,
2013-03-27 19:22:00,44.9,31.5,29.92,WNW,291,1.0,6.0,59,0.00,,,0.00,LWC V2.11 B50,2013-03-27 23:22:00,
2013-03-27 19:27:00,44.8,31.8,29.93,WNW,291,0.0,0.0,60,0.00,,,0.00,LWC V2.11 B50,2013-03-27 23:27:00,
2013-03-27 19:32:00,44.8,32.2,29.93,WNW,283,6.0,10.0,61,0.00,,,0.00,LWC V2.11 B50,2013-03-27 23:32:00,
2013-03-27 19:37:00,44.7,32.1,29.93,WNW,284,7.0,10.0,61,0.00,,,0.00,LWC V2.11 B50,2013-03-27 23:37:00,
2013-03-27 19:42:00,44.7,32.1,29.93,West,273,0.0,10.0,61,0.00,,,0.00,LWC V2.11 B50,2013-03-27 23:42:00,
2013-03-27 19:47:00,44.6,32.4,29.93,NW,304,0.0,7.0,62,0.00,,,0.00,LWC V2.11 B50,2013-03-27 23:47:00,
2013-03-27 19:52:00,44.6,32.4,29.93,NW,318,7.0,10.0,62,0.00,,,0.00,LWC V2.11 B50,2013-03-27 23:52:00,
2013-03-27 19:57:00,44.5,32.3,29.93,WNW,298,0.0,0.0,62,0.00,,,0.00,LWC V2.11 B50,2013-03-27 23:57:00,
2013-03-27 20:02:00,44.5,31.9,29.94,WNW,296,9.0,11.0,61,0.00,,,0.00,LWC V2.11 B50,2013-03-28 00:02:00,
2013-03-27 20:07:00,44.5,31.9,29.94,WNW,299,2.0,2.0,61,0.00,,,0.00,LWC V2.11 B50,2013-03-28 00:07:00,
2013-03-27 20:12:00,44.4,31.8,29.94,WNW,288,3.0,5.0,61,0.00,,,0.00,LWC V2.11 B50,2013-03-28 00:12:00,
2013-03-27 20:17:00,44.3,31.7,29.94,WNW,296,0.0,4.0,61,0.00,,,0.00,LWC V2.11 B50,2013-03-28 00:17:00,
2013-03-27 20:22:00,44.3,31.7,29.95,NW,304,4.0,9.0,61,0.00,,,0.00,LWC V2.11 B50,2013-03-28 00:22:00,
2013-03-27 20:27:00,44.2,32.0,29.95,NW,310,0.0,1.0,62,0.00,,,0.00,LWC V2.11 B50,2013-03-28 00:27:00,
2013-03-27 20:32:00,44.1,31.9,29.95,WNW,287,0.0,6.0,62,0.00,,,0.00,LWC V2.11 B50,2013-03-28 00:32:00,
2013-03-27 20:37:00,44.0,31.8,29.95,WNW,303,1.0,7.0,62,0.00,,,0.00,LWC V2.11 B50,2013-03-28 00:37:00,
2013-03-27 20:42:00,43.9,32.1,29.95,NW,304,2.0,13.0,63,0.00,,,0.00,LWC V2.11 B50,2013-03-28 00:42:00,
2013-03-27 20:47:00,43.8,32.4,29.95,WNW,299,0.0,12.0,64,0.00,,,0.00,LWC V2.11 B50,2013-03-28 00:47:00,
2013-03-27 20:52:00,43.7,32.3,29.95,NW,311,2.0,11.0,64,0.00,,,0.00,LWC V2.11 B50,2013-03-28 00:52:00,
2013-03-27 20:57:00,43.6,32.2,29.96,WNW,302,0.0,9.0,64,0.00,,,0.00,LWC V2.11 B50,2013-03-28 00:57:00,
2013-03-27 21:02:00,43.4,32.4,29.95,WNW,288,0.0,6.0,65,0.00,,,0.00,LWC V2.11 B50,2013-03-28 01:02:00,
2013-03-27 21:07:00,43.3,32.3,29.96,WNW,292,1.0,5.0,65,0.00,,,0.00,LWC V2.11 B50,2013-03-28 01:07:00,
2013-03-27 21:12:00,43.1,32.1,29.96,WNW,290,3.0,3.0,65,0.00,,,0.00,LWC V2.11 B50,2013-03-28 01:12:00,
2013-03-27 21:17:00,42.9,32.3,29.96,WNW,298,0.0,0.0,66,0.00,,,0.00,LWC V2.11 B50,2013-03-28 01:17:00,
2013-03-27 21:22:00,42.9,32.3,29.96,WNW,284,3.0,6.0,66,0.00,,,0.00,LWC V2.11 B50,2013-03-28 01:22:00,
2013-03-27 21:27:00,42.7,32.1,29.96,WNW,290,0.0,0.0,66,0.00,,,0.00,LWC V2.11 B50,2013-03-28 01:27:00,
2013-03-27 21:32:00,42.5,32.3,29.96,WNW,286,0.0,1.0,67,0.00,,,0.00,LWC V2.11 B50,2013-03-28 01:32:00,
2013-03-27 21:37:00,42.3,32.1,29.97,WNW,286,0.0,0.0,67,0.00,,,0.00,LWC V2.11 B50,2013-03-28 01:37:00,
2013-03-27 21:42:00,42.1,31.9,29.97,WNW,286,0.0,0.0,67,0.00,,,0.00,LWC V2.11 B50,2013-03-28 01:42:00,
2013-03-27 21:47:00,41.8,32.0,29.97,WNW,294,0.0,0.0,68,0.00,,,0.00,LWC V2.11 B50,2013-03-28 01:47:00,
2013-03-27 21:52:00,41.7,32.3,29.97,WNW,294,0.0,0.0,69,0.00,,,0.00,LWC V2.11 B50,2013-03-28 01:52:00,
2013-03-27 21:57:00,41.6,32.2,29.98,WNW,285,0.0,0.0,69,0.00,,,0.00,LWC V2.11 B50,2013-03-28 01:57:00,
2013-03-27 22:02:00,41.6,32.2,29.98,WNW,293,0.0,1.0,69,0.00,,,0.00,LWC V2.11 B50,2013-03-28 02:02:00,
2013-03-27 22:07:00,41.6,32.6,29.98,WNW,285,0.0,3.0,70,0.00,,,0.00,LWC V2.11 B50,2013-03-28 02:07:00,
2013-03-27 22:12:00,41.7,32.6,29.98,WNW,286,5.0,11.0,70,0.00,,,0.00,LWC V2.11 B50,2013-03-28 02:12:00,
2013-03-27 22:17:00,41.9,32.5,29.98,WNW,300,2.0,6.0,69,0.00,,,0.00,LWC V2.11 B50,2013-03-28 02:17:00,
2013-03-27 22:22:00,42.0,32.6,29.98,West,280,0.0,4.0,69,0.00,,,0.00,LWC V2.11 B50,2013-03-28 02:22:00,
2013-03-27 22:27:00,42.1,32.3,29.97,WNW,292,3.0,10.0,68,0.00,,,0.00,LWC V2.11 B50,2013-03-28 02:27:00,
2013-03-27 22:32:00,42.2,32.4,29.98,WNW,283,5.0,9.0,68,0.00,,,0.00,LWC V2.11 B50,2013-03-28 02:32:00,
2013-03-27 22:37:00,42.3,32.1,29.98,WNW,291,5.0,10.0,67,0.00,,,0.00,LWC V2.11 B50,2013-03-28 02:37:00,
2013-03-27 22:42:00,42.3,32.1,29.98,West,280,0.0,3.0,67,0.00,,,0.00,LWC V2.11 B50,2013-03-28 02:42:00,
2013-03-27 22:47:00,42.2,32.0,29.98,WNW,296,1.0,11.0,67,0.00,,,0.00,LWC V2.11 B50,2013-03-28 02:47:00,
2013-03-27 22:52:00,42.1,31.9,29.98,WNW,290,11.0,11.0,67,0.00,,,0.00,LWC V2.11 B50,2013-03-28 02:52:00,
2013-03-27 22:57:00,41.9,31.8,29.98,WNW,295,0.0,10.0,67,0.00,,,0.00,LWC V2.11 B50,2013-03-28 02:57:00,
2013-03-27 23:02:00,41.8,32.0,29.98,WNW,288,2.0,5.0,68,0.00,,,0.00,LWC V2.11 B50,2013-03-28 03:02:00,
2013-03-27 23:07:00,41.6,31.8,29.98,WNW,300,0.0,3.0,68,0.00,,,0.00,LWC V2.11 B50,2013-03-28 03:07:00,
2013-03-27 23:12:00,41.4,31.6,29.98,WNW,301,6.0,8.0,68,0.00,,,0.00,LWC V2.11 B50,2013-03-28 03:12:00,
2013-03-27 23:17:00,41.3,31.9,29.98,WNW,296,0.0,0.0,69,0.00,,,0.00,LWC V2.11 B50,2013-03-28 03:17:00,
2013-03-27 23:22:00,41.2,32.2,29.98,WNW,300,3.0,4.0,70,0.00,,,0.00,LWC V2.11 B50,2013-03-28 03:22:00,
2013-03-27 23:27:00,41.1,32.1,29.98,WNW,286,0.0,4.0,70,0.00,,,0.00,LWC V2.11 B50,2013-03-28 03:27:00,
2013-03-27 23:32:00,40.9,32.2,29.98,WNW,295,0.0,5.0,71,0.00,,,0.00,LWC V2.11 B50,2013-03-28 03:32:00,
2013-03-27 23:37:00,40.8,32.1,29.98,WNW,301,4.0,9.0,71,0.00,,,0.00,LWC V2.11 B50,2013-03-28 03:37:00,
2013-03-27 23:42:00,40.7,32.4,29.98,WNW,303,0.0,0.0,72,0.00,,,0.00,LWC V2.11 B50,2013-03-28 03:42:00,
2013-03-27 23:47:00,40.5,32.2,29.98,WNW,298,0.0,0.0,72,0.00,,,0.00,LWC V2.11 B50,2013-03-28 03:47:00,
2013-03-27 23:52:00,40.3,32.0,29.98,WNW,292,0.0,3.0,72,0.00,,,0.00,LWC V2.11 B50,2013-03-28 03:52:00,
2013-03-27 23:57:00,40.2,32.2,29.97,WNW,300,0.0,3.0,73,0.00,,,0.00,LWC V2.11 B50,2013-03-28 03:57:00,